Main page
METAR-TAF:

METAR-TAF

Airports :

Ireland West Airport Knock

Knock, Ireland

latitude: 53-54-37N, longitude: 008-49-05W, elevation: 203 m

Current weather observation

The report was made 2 hours and 3 minutes ago, at 19:00 UTC
Wind 12 kt from the North/Northeast
Temperature 6°C
Humidity 65%
Pressure 1040 hPa
Visibility 10 km or more
Few clouds at a height of 4800 ft

METAR: EIKN 281900Z 03012KT 9999 FEW048 06/00 Q1040 NOSIG

Time: 21:03 (21:03 UTC)

Forecast

The report was made 4 hours and 3 minutes ago, at 17:00 UTC
Forecast valid from 28 at 18 UTC to 29 at 18 UTC
Wind 13 kt from the Northeast
Visibility 10 km or more
Few clouds at a height of 2200 ft
Scattered clouds at a height of 4000 ft
Becoming
from 29 at 16 UTC to 29 at 18 UTC
Wind 12 kt from the North/Northeast

TAF: EIKN 281700Z 2818/2918 05013KT 9999 FEW022 SCT040 BECMG 2916/2918 02012KT

Weather observations and forecasts of more than 4000 airports (METAR and TAF reports).

The available stations are represented by yellow and red dots on the map.

Hover mouse over dot to see the name of the station.

Then click to see weather observations and forecasts.

To change the map : click on the green buttons with a black cross to zoom in, on the green button with a dash to zoom out, or on the green arrows for adjacent maps.


METAR-TAF: